78NY weather

Flying F Airport
Pendleton, New York, United States

Public forecast

Using degrees Fahrenheit for public forecast. Weather courtesy of forecast.io.

Closest aviation weather report (METAR) to Flying F Airport

Closest report is Niagara Falls International Airport, 6.5 nm (12.0 km) WNW. Retrieved 2019/10/16 04:53 UTC (44 minutes ago):

KIAG 160453Z AUTO 13006KT 10SM BKN080 09/05 A2977 RMK AO2 SLP086 T00940050 401560011

Closest aviation forecast (TAF) to Flying F Airport

Closest forecast is Niagara Falls International Airport, 6.5 nm (12.0 km) WNW. Retrieved 2019-10-16 00:39 UTC (5 hours ago):

TAF KIAG 152336Z 1600/1624 05008KT P6SM SCT250 FM160600 15010KT P6SM BKN120 WS020/20040KT FM160900 16012G20KT 6SM -SHRA OVC040 FM161300 19008KT 4SM RA OVC015 FM161700 20010G18KT 6SM -SHRA OVC015 FM162000 24014G22KT P6SM VCSH BKN025